createdAt,value
2018-02-12T00:00:09.638Z,99539.13
2018-02-12T00:02:37.022Z,99536.87
2018-02-12T00:05:04.455Z,99539.80
2018-02-12T00:07:31.842Z,99529.52
2018-02-12T00:09:59.265Z,99532.12
2018-02-12T00:12:26.660Z,99534.72
2018-02-12T00:14:54.050Z,99542.27
2018-02-12T00:17:21.434Z,99546.02
2018-02-12T00:19:48.845Z,99540.84
2018-02-12T00:22:16.357Z,99550.39
2018-02-12T00:24:43.745Z,99546.58
2018-02-12T00:27:11.118Z,99557.55
2018-02-12T00:29:38.502Z,99558.81
2018-02-12T00:32:05.878Z,99556.44
2018-02-12T00:34:33.261Z,99554.75
2018-02-12T00:37:00.637Z,99559.92
2018-02-12T00:39:28.029Z,99562.83
2018-02-12T00:41:55.414Z,99565.41
2018-02-12T00:44:22.822Z,99569.70
2018-02-12T00:46:50.210Z,99564.23
2018-02-12T00:49:17.606Z,99564.81
2018-02-12T00:51:44.991Z,99565.53
2018-02-12T00:54:12.442Z,99564.67
2018-02-12T00:56:39.836Z,99570.52
2018-02-12T00:59:07.231Z,99578.55
2018-02-12T01:01:34.714Z,99576.00
2018-02-12T01:04:02.102Z,99577.55
2018-02-12T01:06:29.486Z,99587.59
2018-02-12T01:08:56.974Z,99585.44
2018-02-12T01:11:24.354Z,99583.43
2018-02-12T01:16:16.162Z,99592.81
2018-02-12T01:18:43.542Z,99591.48
2018-02-12T01:21:10.927Z,99587.34
2018-02-12T01:23:38.321Z,99590.45
2018-02-12T01:26:05.727Z,99594.75
2018-02-12T01:28:33.083Z,99595.13
2018-02-12T01:31:00.466Z,99600.72
2018-02-12T01:33:27.949Z,99596.43
2018-02-12T01:35:55.405Z,99600.77
2018-02-12T01:38:22.861Z,99604.87
2018-02-12T01:40:50.318Z,99613.88
2018-02-12T01:43:17.718Z,99620.36
2018-02-12T01:45:45.136Z,99620.73
2018-02-12T01:48:12.518Z,99617.28
2018-02-12T01:50:39.909Z,99625.89
2018-02-12T01:53:07.314Z,99627.95
2018-02-12T01:55:34.701Z,99635.34
2018-02-12T01:58:02.102Z,99628.16
2018-02-12T02:00:29.563Z,99627.55
2018-02-12T02:02:56.962Z,99633.27
2018-02-12T02:05:24.347Z,99632.55
2018-02-12T02:07:51.739Z,99620.65
2018-02-12T02:10:19.178Z,99626.14
2018-02-12T02:12:46.629Z,99628.33
2018-02-12T02:15:14.038Z,99636.02
2018-02-12T02:17:41.414Z,99633.80
2018-02-12T02:20:08.802Z,99632.30
2018-02-12T02:22:36.174Z,99639.84
2018-02-12T02:25:03.610Z,99647.16
2018-02-12T02:27:31.062Z,99653.93
2018-02-12T02:29:58.454Z,99663.95
2018-02-12T02:32:25.877Z,99657.41
2018-02-12T02:34:53.336Z,99656.41
2018-02-12T02:37:20.815Z,99656.80
2018-02-12T02:39:48.251Z,99664.24
2018-02-12T02:42:15.634Z,99662.36
2018-02-12T02:44:43.024Z,99653.95
2018-02-12T02:47:10.401Z,99661.88
2018-02-12T02:49:37.786Z,99666.67
2018-02-12T02:52:05.170Z,99666.09
2018-02-12T02:54:32.570Z,99676.52
2018-02-12T02:56:59.963Z,99666.84
2018-02-12T02:59:27.382Z,99673.23
2018-02-12T03:01:54.767Z,99673.31
2018-02-12T03:04:22.213Z,99670.59
2018-02-12T03:06:49.602Z,99679.06
2018-02-12T03:09:17.041Z,99677.23
2018-02-12T03:11:44.462Z,99685.88
2018-02-12T03:14:11.846Z,99695.31
2018-02-12T03:16:39.234Z,99689.05
2018-02-12T03:19:06.725Z,99699.55
2018-02-12T03:21:34.116Z,99704.75
2018-02-12T03:24:01.505Z,99699.75
2018-02-12T03:26:28.890Z,99696.70
2018-02-12T03:28:56.342Z,99702.95
2018-02-12T03:31:23.739Z,99702.09
2018-02-12T03:33:51.126Z,99705.90
2018-02-12T03:36:18.502Z,99713.55
2018-02-12T03:38:45.905Z,99713.00
2018-02-12T03:41:13.299Z,99711.39
2018-02-12T03:43:40.781Z,99720.83
2018-02-12T03:46:08.171Z,99721.33
2018-02-12T03:48:35.550Z,99729.48
2018-02-12T03:51:03.001Z,99729.19
2018-02-12T03:53:30.378Z,99727.77
2018-02-12T03:55:57.781Z,99728.61
2018-02-12T03:58:25.165Z,99728.54
2018-02-12T04:00:52.560Z,99723.29
2018-02-12T04:03:19.961Z,99728.50
2018-02-12T04:05:47.443Z,99725.75
2018-02-12T04:08:14.821Z,99726.27
2018-02-12T04:10:42.215Z,99739.17
2018-02-12T04:13:09.599Z,99738.59
2018-02-12T04:15:36.986Z,99747.41
2018-02-12T04:18:04.370Z,99747.50
2018-02-12T04:20:31.748Z,99746.00
2018-02-12T04:22:59.426Z,99744.45
2018-02-12T04:25:26.861Z,99741.75
2018-02-12T04:27:54.348Z,99745.56
2018-02-12T04:30:21.717Z,99745.58
2018-02-12T04:32:49.147Z,99748.77
2018-02-12T04:35:16.538Z,99743.75
2018-02-12T04:37:43.958Z,99741.00
2018-02-12T04:40:11.432Z,99746.55
2018-02-12T04:42:38.798Z,99747.73
2018-02-12T04:45:06.188Z,99747.63
2018-02-12T04:47:33.570Z,99747.26
2018-02-12T04:50:00.981Z,99755.78
2018-02-12T04:52:28.387Z,99758.80
2018-02-12T04:54:55.771Z,99764.90
2018-02-12T04:57:23.158Z,99768.24
2018-02-12T04:59:50.645Z,99773.36
2018-02-12T05:02:18.026Z,99777.70
2018-02-12T05:04:45.438Z,99773.50
2018-02-12T05:07:12.825Z,99772.89
2018-02-12T05:09:40.220Z,99773.78
2018-02-12T05:12:07.621Z,99767.97
2018-02-12T05:14:35.088Z,99775.45
2018-02-12T05:17:02.466Z,99776.80
2018-02-12T05:19:29.881Z,99775.45
2018-02-12T05:21:57.338Z,99769.50
2018-02-12T05:24:24.728Z,99772.94
2018-02-12T05:26:52.154Z,99778.53
2018-02-12T05:29:19.537Z,99784.02
2018-02-12T05:31:46.930Z,99777.86
2018-02-12T05:34:14.564Z,99777.81
2018-02-12T05:36:41.995Z,99778.66
2018-02-12T05:39:09.370Z,99782.79
2018-02-12T05:41:36.762Z,99789.94
2018-02-12T05:44:04.246Z,99798.33
2018-02-12T05:46:31.630Z,99808.52
2018-02-12T05:48:59.054Z,99820.49
2018-02-12T05:51:26.437Z,99816.11
2018-02-12T05:53:53.819Z,99824.57
2018-02-12T05:56:21.213Z,99830.70
2018-02-12T05:58:48.629Z,99827.19
2018-02-12T06:01:15.982Z,99833.47
2018-02-12T06:03:43.366Z,99849.23
2018-02-12T06:06:10.833Z,99859.19
2018-02-12T06:08:38.237Z,99862.51
2018-02-12T06:11:05.614Z,99865.83
2018-02-12T06:13:33.001Z,99874.45
2018-02-12T06:16:00.399Z,99885.19
2018-02-12T06:18:27.815Z,99882.20
2018-02-12T06:20:55.197Z,99885.36
2018-02-12T06:23:22.657Z,99890.59
2018-02-12T06:25:50.051Z,99892.72
2018-02-12T06:28:17.425Z,99886.99
2018-02-12T06:30:44.886Z,99884.94
2018-02-12T06:33:12.282Z,99897.38
2018-02-12T06:35:39.651Z,99901.02
2018-02-12T06:38:07.026Z,99906.52
2018-02-12T06:40:34.511Z,99909.17
2018-02-12T06:43:01.890Z,99906.11
2018-02-12T06:45:29.318Z,99911.22
2018-02-12T06:47:56.698Z,99912.17
2018-02-12T06:50:24.081Z,99915.80
2018-02-12T06:52:51.485Z,99918.25
2018-02-12T06:55:18.942Z,99915.48
2018-02-12T06:57:46.335Z,99919.97
2018-02-12T07:00:13.755Z,99922.20
2018-02-12T07:02:41.142Z,99923.55
2018-02-12T07:05:08.534Z,99921.73
2018-02-12T07:07:35.914Z,99924.53
2018-02-12T07:10:03.302Z,99931.27
2018-02-12T07:12:30.714Z,99937.39
2018-02-12T07:14:58.104Z,99932.29
2018-02-12T07:17:25.502Z,99938.20
2018-02-12T07:19:52.886Z,99942.81
2018-02-12T07:22:20.275Z,99936.34
2018-02-12T07:24:47.663Z,99940.91
2018-02-12T07:27:15.053Z,99936.09
2018-02-12T07:29:42.502Z,99941.02
2018-02-12T07:32:09.966Z,99943.43
2018-02-12T07:34:37.341Z,99940.78
2018-02-12T07:37:04.738Z,99949.74
2018-02-12T07:39:32.127Z,99949.17
2018-02-12T07:41:59.519Z,99949.93
2018-02-12T07:44:26.907Z,99957.33
2018-02-12T07:46:54.394Z,99956.59
2018-02-12T07:49:21.850Z,99957.96
2018-02-12T07:51:49.237Z,99962.59
2018-02-12T07:54:16.625Z,99968.91
2018-02-12T07:56:44.114Z,99964.93
2018-02-12T07:59:11.570Z,99982.23
2018-02-12T08:01:38.959Z,99981.42
2018-02-12T08:04:06.334Z,99978.39
2018-02-12T08:06:33.718Z,99981.20
2018-02-12T08:09:01.186Z,99993.02
2018-02-12T08:11:28.583Z,100001.87
2018-02-12T08:13:55.967Z,100005.42
2018-02-12T08:16:23.358Z,100012.03
2018-02-12T08:18:50.806Z,100012.20
2018-02-12T08:21:18.266Z,100015.38
2018-02-12T08:23:45.650Z,100019.94
2018-02-12T08:26:13.077Z,100010.44
2018-02-12T08:28:40.536Z,100012.87
2018-02-12T08:31:07.922Z,100016.94
2018-02-12T08:33:35.310Z,100027.57
2018-02-12T08:36:02.793Z,100027.98
2018-02-12T08:38:30.259Z,100034.03
2018-02-12T08:40:57.641Z,100032.72
2018-02-12T08:43:25.022Z,100037.59
2018-02-12T08:45:52.420Z,100041.05
2018-02-12T08:48:19.882Z,100043.28
2018-02-12T08:50:47.319Z,100049.28
2018-02-12T08:53:14.690Z,100049.09
2018-02-12T08:55:42.083Z,100046.77
2018-02-12T08:58:09.464Z,100051.59
2018-02-12T09:00:36.958Z,100060.53
2018-02-12T09:03:04.342Z,100056.81
2018-02-12T09:05:31.738Z,100067.84
2018-02-12T09:07:59.133Z,100069.66
2018-02-12T09:10:26.578Z,100070.94
2018-02-12T09:12:54.031Z,100070.30
2018-02-12T09:15:21.501Z,100072.66
2018-02-12T09:17:48.946Z,100069.19
2018-02-12T09:20:16.333Z,100084.47
2018-02-12T09:22:43.765Z,100089.17
2018-02-12T09:25:11.214Z,100092.66
2018-02-12T09:27:38.613Z,100099.44
2018-02-12T09:30:05.995Z,100103.72
2018-02-12T09:32:33.384Z,100109.95
2018-02-12T09:35:00.772Z,100114.23
2018-02-12T09:37:28.159Z,100114.72
2018-02-12T09:39:55.654Z,100118.48
2018-02-12T09:42:23.390Z,100124.31
2018-02-12T09:44:50.866Z,100126.66
2018-02-12T09:47:18.259Z,100136.38
2018-02-12T09:49:45.641Z,100130.16
2018-02-12T09:52:13.126Z,100135.13
2018-02-12T09:54:40.509Z,100143.66
2018-02-12T09:57:07.907Z,100143.41
2018-02-12T09:59:35.282Z,100146.38
2018-02-12T10:02:02.686Z,100156.92
2018-02-12T10:04:30.622Z,100163.11
2018-02-12T10:06:58.082Z,100171.66
2018-02-12T10:09:25.533Z,100184.70
2018-02-12T10:11:52.959Z,100178.90
2018-02-12T10:14:20.314Z,100180.09
2018-02-12T10:16:48.519Z,100186.86
2018-02-12T10:19:15.978Z,100191.12
2018-02-12T10:21:43.366Z,100202.92
2018-02-12T10:24:10.750Z,100204.52
2018-02-12T10:26:38.142Z,100202.81
2018-02-12T10:29:05.526Z,100216.97
2018-02-12T10:31:32.917Z,100216.92
2018-02-12T10:34:00.298Z,100211.92
2018-02-12T10:36:27.691Z,100220.48
2018-02-12T10:38:55.125Z,100224.40
2018-02-12T10:41:22.510Z,100219.23
2018-02-12T10:43:49.895Z,100224.65
2018-02-12T10:46:17.382Z,100221.47
2018-02-12T10:48:44.839Z,100220.03
2018-02-12T10:51:12.230Z,100230.23
2018-02-12T10:53:39.650Z,100234.56
2018-02-12T10:56:07.033Z,100243.70
2018-02-12T10:58:34.431Z,100233.99
2018-02-12T11:01:01.926Z,100241.55
2018-02-12T11:03:29.318Z,100235.72
2018-02-12T11:05:56.737Z,100229.58
2018-02-12T11:08:24.130Z,100241.04
2018-02-12T11:10:51.509Z,100237.36
2018-02-12T11:13:18.995Z,100241.67
2018-02-12T11:15:46.388Z,100251.67
2018-02-12T11:18:13.775Z,100248.65
2018-02-12T11:20:41.154Z,100268.38
2018-02-12T11:23:08.618Z,100265.23
2018-02-12T11:25:36.070Z,100267.53
2018-02-12T11:28:03.458Z,100264.64
2018-02-12T11:30:30.848Z,100268.80
2018-02-12T11:32:58.243Z,100272.77
2018-02-12T11:35:25.641Z,100266.50
2018-02-12T11:37:53.030Z,100277.69
2018-02-12T11:40:20.416Z,100274.50
2018-02-12T11:42:47.811Z,100281.20
2018-02-12T11:45:15.189Z,100276.42
2018-02-12T11:47:42.569Z,100276.34
2018-02-12T11:50:09.962Z,100276.69
2018-02-12T11:52:37.380Z,100275.09
2018-02-12T11:55:04.763Z,100277.55
2018-02-12T11:57:33.174Z,100284.24
2018-02-12T12:00:00.566Z,100284.31
2018-02-12T12:02:27.959Z,100291.80
2018-02-12T12:04:55.339Z,100288.66
2018-02-12T12:07:22.730Z,100295.27
2018-02-12T12:09:50.187Z,100295.84
2018-02-12T12:12:17.648Z,100294.12
2018-02-12T12:14:45.033Z,100300.36
2018-02-12T12:17:12.464Z,100304.77
2018-02-12T12:19:39.837Z,100308.31
2018-02-12T12:22:07.229Z,100307.88
2018-02-12T12:24:34.602Z,100303.08
2018-02-12T12:27:01.992Z,100314.19
2018-02-12T12:29:29.379Z,100309.47
2018-02-12T12:31:56.790Z,100310.25
2018-02-12T12:34:24.154Z,100310.61
2018-02-12T12:36:51.537Z,100304.73
2018-02-12T12:39:18.915Z,100305.43
2018-02-12T12:41:46.409Z,100303.22
2018-02-12T12:44:13.861Z,100315.55
2018-02-12T12:46:41.246Z,100305.80
2018-02-12T12:49:08.638Z,100307.47
2018-02-12T12:51:36.020Z,100310.57
2018-02-12T12:54:03.407Z,100303.43
2018-02-12T12:56:30.829Z,100291.89
2018-02-12T12:58:58.263Z,100303.92
2018-02-12T13:01:25.745Z,100299.41
2018-02-12T13:03:53.154Z,100301.95
2018-02-12T13:06:20.562Z,100300.38
2018-02-12T13:08:47.952Z,100307.66
2018-02-12T13:11:15.325Z,100304.01
2018-02-12T13:13:42.739Z,100315.04
2018-02-12T13:16:10.190Z,100310.96
2018-02-12T13:18:37.648Z,100314.05
2018-02-12T13:21:05.039Z,100323.98
2018-02-12T13:23:32.575Z,100333.45
2018-02-12T13:25:59.958Z,100333.31
2018-02-12T13:28:27.354Z,100337.41
2018-02-12T13:30:54.741Z,100334.84
2018-02-12T13:33:22.145Z,100337.49
2018-02-12T13:35:49.538Z,100331.89
2018-02-12T13:38:16.930Z,100339.34
2018-02-12T13:40:44.342Z,100335.86
2018-02-12T13:43:11.740Z,100337.36
2018-02-12T13:45:39.155Z,100335.82
2018-02-12T13:48:06.542Z,100327.08
2018-02-12T13:50:33.967Z,100330.16
2018-02-12T13:53:01.401Z,100325.08
2018-02-12T13:55:28.791Z,100329.23
2018-02-12T13:57:56.241Z,100327.11
2018-02-12T14:00:23.637Z,100326.62
2018-02-12T14:02:51.052Z,100327.77
2018-02-12T14:05:18.421Z,100333.41
2018-02-12T14:07:45.823Z,100338.50
2018-02-12T14:10:13.305Z,100335.66
2018-02-12T14:12:40.701Z,100343.45
2018-02-12T14:15:08.136Z,100347.30
2018-02-12T14:17:35.581Z,100338.73
2018-02-12T14:20:02.970Z,100341.36
2018-02-12T14:22:30.362Z,100346.80
2018-02-12T14:24:57.746Z,100347.05
2018-02-12T14:27:25.201Z,100347.80
2018-02-12T14:29:52.592Z,100352.05
2018-02-12T14:32:19.975Z,100350.20
2018-02-12T14:34:47.467Z,100349.74
2018-02-12T14:37:14.846Z,100358.06
2018-02-12T14:39:42.244Z,100357.91
2018-02-12T14:42:09.739Z,100361.47
2018-02-12T14:44:37.127Z,100363.48
2018-02-12T14:47:04.511Z,100367.88
2018-02-12T14:49:31.910Z,100399.94
2018-02-12T14:51:59.290Z,100408.59
2018-02-12T14:54:26.714Z,100419.84
2018-02-12T14:56:54.173Z,100420.96
2018-02-12T14:59:21.571Z,100427.63
2018-02-12T15:01:48.978Z,100428.16
2018-02-12T15:04:16.350Z,100430.28
2018-02-12T15:06:43.846Z,100426.16
2018-02-12T15:09:11.237Z,100426.20
2018-02-12T15:11:38.613Z,100428.03
2018-02-12T15:14:06.053Z,100424.13
2018-02-12T15:16:33.443Z,100427.91
2018-02-12T15:19:00.874Z,100421.55
2018-02-12T15:21:28.271Z,100428.08
2018-02-12T15:23:55.684Z,100427.81
2018-02-12T15:26:23.141Z,100426.07
2018-02-12T15:28:50.542Z,100427.48
2018-02-12T15:31:18.026Z,100430.01
2018-02-12T15:33:45.419Z,100433.84
2018-02-12T15:36:12.862Z,100435.48
2018-02-12T15:38:40.251Z,100441.07
2018-02-12T15:41:07.671Z,100447.99
2018-02-12T15:43:35.126Z,100452.97
2018-02-12T15:46:02.506Z,100452.77
2018-02-12T15:48:29.945Z,100459.86
2018-02-12T15:50:57.398Z,100452.70
2018-02-12T15:53:24.787Z,100463.83
2018-02-12T15:55:52.207Z,100469.81
2018-02-12T15:58:19.599Z,100463.35
2018-02-12T16:00:46.983Z,100462.42
2018-02-12T16:03:14.374Z,100460.98
2018-02-12T16:05:41.762Z,100461.83
2018-02-12T16:08:09.173Z,100461.80
2018-02-12T16:10:36.614Z,100466.70
2018-02-12T16:13:03.958Z,100475.52
2018-02-12T16:15:31.341Z,100474.63
2018-02-12T16:17:58.797Z,100479.05
2018-02-12T16:20:26.243Z,100485.41
2018-02-12T16:22:53.640Z,100484.01
2018-02-12T16:25:21.031Z,100483.05
2018-02-12T16:27:48.415Z,100487.50
2018-02-12T16:30:15.794Z,100492.30
2018-02-12T16:32:43.183Z,100488.63
2018-02-12T16:35:10.594Z,100498.53
2018-02-12T16:37:37.966Z,100498.28
2018-02-12T16:40:05.355Z,100501.60
2018-02-12T16:42:32.736Z,100506.11
2018-02-12T16:45:00.218Z,100510.45
2018-02-12T16:47:27.590Z,100515.00
2018-02-12T16:49:55.014Z,100524.50
2018-02-12T16:52:22.483Z,100520.73
2018-02-12T16:54:49.935Z,100526.80
2018-02-12T16:57:17.385Z,100530.43
2018-02-12T16:59:44.778Z,100530.72
2018-02-12T17:02:12.194Z,100527.45
2018-02-12T17:04:39.603Z,100526.31
2018-02-12T17:07:07.020Z,100531.98
2018-02-12T17:09:34.465Z,100531.06
2018-02-12T17:12:01.946Z,100533.84
2018-02-12T17:14:29.378Z,100533.93
2018-02-12T17:16:56.767Z,100540.91
2018-02-12T17:19:24.154Z,100544.78
2018-02-12T17:21:51.583Z,100544.98
2018-02-12T17:24:19.003Z,100545.63
2018-02-12T17:26:46.377Z,100549.97
2018-02-12T17:29:13.825Z,100553.28
2018-02-12T17:31:41.666Z,100558.11
2018-02-12T17:34:09.134Z,100562.21
2018-02-12T17:36:36.526Z,100558.66
2018-02-12T17:39:03.922Z,100559.25
2018-02-12T17:41:31.297Z,100559.20
2018-02-12T17:43:58.686Z,100552.51
2018-02-12T17:46:26.111Z,100556.95
2018-02-12T17:48:53.567Z,100550.56
2018-02-12T17:51:20.957Z,100558.38
2018-02-12T17:53:48.346Z,100561.34
2018-02-12T17:56:15.821Z,100565.53
2018-02-12T17:58:43.289Z,100569.01
2018-02-12T18:01:10.675Z,100576.13
2018-02-12T18:03:38.095Z,100575.30
2018-02-12T18:06:05.477Z,100576.25
2018-02-12T18:08:33.023Z,100575.02
2018-02-12T18:11:00.419Z,100580.06
2018-02-12T18:13:27.799Z,100578.33
2018-02-12T18:15:55.221Z,100579.64
2018-02-12T18:18:22.677Z,100581.58
2018-02-12T18:20:50.072Z,100574.09
2018-02-12T18:23:17.457Z,100583.36
2018-02-12T18:25:44.872Z,100588.39
2018-02-12T18:28:12.231Z,100596.92
2018-02-12T18:30:39.649Z,100595.05
2018-02-12T18:33:07.122Z,100597.14
2018-02-12T18:35:34.522Z,100600.91
2018-02-12T18:38:01.938Z,100601.34
2018-02-12T18:40:29.343Z,100600.41
2018-02-12T18:42:56.745Z,100606.55
2018-02-12T18:45:24.166Z,100606.09
2018-02-12T18:47:51.547Z,100608.30
2018-02-12T18:50:18.943Z,100618.41
2018-02-12T18:52:46.323Z,100623.84
2018-02-12T18:55:13.747Z,100614.02
2018-02-12T18:57:41.131Z,100619.50
2018-02-12T19:00:08.555Z,100621.11
2018-02-12T19:02:35.932Z,100620.41
2018-02-12T19:05:03.331Z,100624.25
2018-02-12T19:07:30.802Z,100624.35
2018-02-12T19:09:58.214Z,100629.14
2018-02-12T19:12:25.609Z,100633.37
2018-02-12T19:14:53.009Z,100631.76
2018-02-12T19:17:20.424Z,100635.61
2018-02-12T19:19:47.896Z,100634.73
2018-02-12T19:22:15.290Z,100639.48
2018-02-12T19:24:42.693Z,100638.64
2018-02-12T19:27:10.094Z,100644.95
2018-02-12T19:29:37.559Z,100639.57
2018-02-12T19:32:04.959Z,100640.64
2018-02-12T19:34:32.387Z,100647.55
2018-02-12T19:36:59.876Z,100640.48
2018-02-12T19:39:27.332Z,100643.51
2018-02-12T19:41:54.773Z,100640.36
2018-02-12T19:44:23.114Z,100645.45
2018-02-12T19:46:50.513Z,100645.05
2018-02-12T19:49:17.940Z,100644.23
2018-02-12T19:51:45.318Z,100645.48
2018-02-12T19:54:12.726Z,100639.62
2018-02-12T19:56:40.110Z,100646.34
2018-02-12T20:02:29.242Z,100648.59
2018-02-12T20:04:56.635Z,100648.11
2018-02-12T20:07:24.014Z,100653.37
2018-02-12T20:09:51.488Z,100650.77
2018-02-12T20:12:18.875Z,100655.09
2018-02-12T20:14:46.258Z,100652.09
2018-02-12T20:17:13.821Z,100656.39
2018-02-12T20:19:41.360Z,100651.27
2018-02-12T20:22:08.980Z,100648.64
2018-02-12T20:24:36.571Z,100657.96
2018-02-12T20:27:04.009Z,100656.85
2018-02-12T20:29:31.472Z,100660.37
2018-02-12T20:31:58.930Z,100661.47
2018-02-12T20:34:26.466Z,100661.90
2018-02-12T20:36:53.853Z,100675.28
2018-02-12T20:39:21.392Z,100681.44
2018-02-12T20:41:48.790Z,100672.17
2018-02-12T20:44:16.280Z,100678.08
2018-02-12T20:46:43.869Z,100679.00
2018-02-12T20:49:11.396Z,100684.39
2018-02-12T20:51:38.965Z,100684.92
2018-02-12T20:54:06.361Z,100682.99
2018-02-12T20:56:33.786Z,100684.45
2018-02-12T20:59:01.242Z,100679.03
2018-02-12T21:01:28.639Z,100678.63
2018-02-12T21:03:56.055Z,100680.75
2018-02-12T21:06:23.520Z,100683.70
2018-02-12T21:08:50.902Z,100685.13
2018-02-12T21:11:18.298Z,100687.52
2018-02-12T21:13:45.690Z,100682.42
2018-02-12T21:16:13.082Z,100688.48
2018-02-12T21:18:40.470Z,100696.33
2018-02-12T21:21:07.938Z,100693.91
2018-02-12T21:23:35.331Z,100701.34
2018-02-12T21:26:02.721Z,100703.36
2018-02-12T21:28:30.198Z,100698.82
2018-02-12T21:30:57.597Z,100699.62
2018-02-12T21:33:24.987Z,100695.47
2018-02-12T21:35:52.394Z,100704.92
2018-02-12T21:38:19.778Z,100703.84
2018-02-12T21:40:47.229Z,100701.77
2018-02-12T21:43:14.571Z,100697.91
2018-02-12T21:45:41.965Z,100705.91
2018-02-12T21:48:09.356Z,100703.89
2018-02-12T21:50:36.850Z,100706.50
2018-02-12T21:53:04.311Z,100706.55
2018-02-12T21:55:31.708Z,100710.27
2018-02-12T21:57:59.097Z,100709.95
2018-02-12T22:00:26.502Z,100712.37
2018-02-12T22:02:53.929Z,100712.93
2018-02-12T22:05:21.379Z,100710.14
2018-02-12T22:07:48.770Z,100712.66
2018-02-12T22:10:16.166Z,100710.05
2018-02-12T22:12:43.549Z,100706.78
2018-02-12T22:15:11.003Z,100703.89
2018-02-12T22:17:38.390Z,100705.97
2018-02-12T22:20:05.791Z,100706.25
2018-02-12T22:22:33.194Z,100708.00
2018-02-12T22:25:00.580Z,100710.38
2018-02-12T22:27:27.998Z,100709.88
2018-02-12T22:29:55.381Z,100702.39
2018-02-12T22:32:22.782Z,100708.72
2018-02-12T22:34:50.177Z,100702.66
2018-02-12T22:37:17.598Z,100709.70
2018-02-12T22:39:45.047Z,100712.92
2018-02-12T22:42:12.449Z,100708.55
2018-02-12T22:44:39.837Z,100702.69
2018-02-12T22:47:07.286Z,100708.70
2018-02-12T22:49:34.678Z,100702.81
2018-02-12T22:52:02.101Z,100707.78
2018-02-12T22:54:29.498Z,100708.89
2018-02-12T22:56:56.898Z,100708.42
2018-02-12T22:59:24.286Z,100715.20
2018-02-12T23:01:51.681Z,100712.91
2018-02-12T23:04:19.074Z,100711.34
2018-02-12T23:06:46.461Z,100714.35
2018-02-12T23:09:13.854Z,100714.28
2018-02-12T23:11:41.251Z,100716.48
2018-02-12T23:14:08.638Z,100721.36
2018-02-12T23:16:36.071Z,100716.86
2018-02-12T23:19:03.434Z,100710.59
2018-02-12T23:21:30.906Z,100717.79
2018-02-12T23:23:58.294Z,100710.74
2018-02-12T23:26:25.686Z,100712.67
2018-02-12T23:28:53.074Z,100720.76
2018-02-12T23:31:20.528Z,100715.45
2018-02-12T23:33:47.909Z,100720.28
2018-02-12T23:36:15.314Z,100720.38
2018-02-12T23:38:42.710Z,100718.08
2018-02-12T23:41:10.102Z,100721.33
2018-02-12T23:43:37.495Z,100723.91
2018-02-12T23:46:04.898Z,100721.66
2018-02-12T23:48:32.302Z,100723.00
2018-02-12T23:50:59.703Z,100725.02
2018-02-12T23:53:27.095Z,100728.54
2018-02-12T23:55:54.488Z,100726.05
2018-02-12T23:58:21.892Z,100729.23
